sensor_id;sensor_type;location;lat;lon;timestamp;pressure;altitude;pressure_sealevel;temperature
69590;BMP180;56792;50.644;17.984;2023-08-20T00:01:25;100042.60;;;20.40
69590;BMP180;56792;50.644;17.984;2023-08-20T00:03:58;100045.20;;;20.40
69590;BMP180;56792;50.644;17.984;2023-08-20T00:06:31;100046.60;;;20.40
69590;BMP180;56792;50.644;17.984;2023-08-20T00:09:02;100043.40;;;20.40
69590;BMP180;56792;50.644;17.984;2023-08-20T00:11:36;100045.20;;;20.40
69590;BMP180;56792;50.644;17.984;2023-08-20T00:14:07;100044.20;;;20.30
69590;BMP180;56792;50.644;17.984;2023-08-20T00:16:39;100045.40;;;20.30
69590;BMP180;56792;50.644;17.984;2023-08-20T00:19:12;100049.00;;;20.30
69590;BMP180;56792;50.644;17.984;2023-08-20T00:21:44;100048.40;;;20.20
69590;BMP180;56792;50.644;17.984;2023-08-20T00:24:17;100046.60;;;20.20
69590;BMP180;56792;50.644;17.984;2023-08-20T00:26:50;100039.80;;;20.20
69590;BMP180;56792;50.644;17.984;2023-08-20T00:29:21;100042.40;;;20.20
69590;BMP180;56792;50.644;17.984;2023-08-20T00:31:52;100041.00;;;20.20
69590;BMP180;56792;50.644;17.984;2023-08-20T00:34:23;100044.40;;;20.18
69590;BMP180;56792;50.644;17.984;2023-08-20T00:36:54;100039.40;;;20.14
69590;BMP180;56792;50.644;17.984;2023-08-20T00:39:25;100041.20;;;20.10
69590;BMP180;56792;50.644;17.984;2023-08-20T00:41:56;100039.20;;;20.10
69590;BMP180;56792;50.644;17.984;2023-08-20T00:44:27;100044.40;;;20.10
69590;BMP180;56792;50.644;17.984;2023-08-20T00:47:00;100043.20;;;20.10
69590;BMP180;56792;50.644;17.984;2023-08-20T00:49:33;100041.80;;;20.00
69590;BMP180;56792;50.644;17.984;2023-08-20T00:52:06;100044.40;;;20.00
69590;BMP180;56792;50.644;17.984;2023-08-20T00:54:40;100042.40;;;20.00
69590;BMP180;56792;50.644;17.984;2023-08-20T00:57:11;100044.00;;;20.00
69590;BMP180;56792;50.644;17.984;2023-08-20T00:59:45;100043.00;;;20.00
69590;BMP180;56792;50.644;17.984;2023-08-20T01:02:18;100045.80;;;19.90
69590;BMP180;56792;50.644;17.984;2023-08-20T01:04:51;100044.00;;;19.90
69590;BMP180;56792;50.644;17.984;2023-08-20T01:07:32;100046.80;;;19.90
69590;BMP180;56792;50.644;17.984;2023-08-20T01:10:16;100051.00;;;19.90
69590;BMP180;56792;50.644;17.984;2023-08-20T01:12:49;100053.00;;;19.90
69590;BMP180;56792;50.644;17.984;2023-08-20T01:15:21;100049.40;;;19.90
69590;BMP180;56792;50.644;17.984;2023-08-20T01:17:52;100047.20;;;19.90
69590;BMP180;56792;50.644;17.984;2023-08-20T01:20:27;100050.20;;;19.90
69590;BMP180;56792;50.644;17.984;2023-08-20T01:23:36;100053.20;;;19.90
69590;BMP180;56792;50.644;17.984;2023-08-20T01:26:25;100050.60;;;19.84
69590;BMP180;56792;50.644;17.984;2023-08-20T01:29:01;100044.20;;;19.88
69590;BMP180;56792;50.644;17.984;2023-08-20T01:31:33;100045.00;;;19.80
69590;BMP180;56792;50.644;17.984;2023-08-20T01:34:05;100046.60;;;19.80
69590;BMP180;56792;50.644;17.984;2023-08-20T01:36:36;100048.20;;;19.80
69590;BMP180;56792;50.644;17.984;2023-08-20T01:39:08;100048.40;;;19.80
69590;BMP180;56792;50.644;17.984;2023-08-20T01:41:39;100050.40;;;19.80
69590;BMP180;56792;50.644;17.984;2023-08-20T01:44:11;100045.60;;;19.80
69590;BMP180;56792;50.644;17.984;2023-08-20T01:46:42;100046.00;;;19.80
69590;BMP180;56792;50.644;17.984;2023-08-20T01:49:13;100046.20;;;19.74
69590;BMP180;56792;50.644;17.984;2023-08-20T01:51:44;100042.20;;;19.70
69590;BMP180;56792;50.644;17.984;2023-08-20T01:54:15;100040.20;;;19.70
69590;BMP180;56792;50.644;17.984;2023-08-20T01:56:46;100041.20;;;19.70
69590;BMP180;56792;50.644;17.984;2023-08-20T01:59:17;100040.40;;;19.70
69590;BMP180;56792;50.644;17.984;2023-08-20T02:01:49;100038.00;;;19.66
69590;BMP180;56792;50.644;17.984;2023-08-20T02:04:20;100029.20;;;19.60
69590;BMP180;56792;50.644;17.984;2023-08-20T02:06:51;100034.40;;;19.58
69590;BMP180;56792;50.644;17.984;2023-08-20T02:09:22;100030.40;;;19.52
69590;BMP180;56792;50.644;17.984;2023-08-20T02:11:54;100040.20;;;19.50
69590;BMP180;56792;50.644;17.984;2023-08-20T02:14:25;100038.80;;;19.50
69590;BMP180;56792;50.644;17.984;2023-08-20T02:16:56;100037.60;;;19.50
69590;BMP180;56792;50.644;17.984;2023-08-20T02:19:28;100038.80;;;19.50
69590;BMP180;56792;50.644;17.984;2023-08-20T02:21:59;100036.80;;;19.42
69590;BMP180;56792;50.644;17.984;2023-08-20T02:24:30;100039.20;;;19.40
69590;BMP180;56792;50.644;17.984;2023-08-20T02:27:01;100041.80;;;19.40
69590;BMP180;56792;50.644;17.984;2023-08-20T02:29:32;100035.40;;;19.36
69590;BMP180;56792;50.644;17.984;2023-08-20T02:32:03;100034.80;;;19.30
69590;BMP180;56792;50.644;17.984;2023-08-20T02:34:34;100028.40;;;19.30
69590;BMP180;56792;50.644;17.984;2023-08-20T02:37:05;100023.40;;;19.30
69590;BMP180;56792;50.644;17.984;2023-08-20T02:39:37;100023.20;;;19.30
69590;BMP180;56792;50.644;17.984;2023-08-20T02:42:08;100019.20;;;19.30
69590;BMP180;56792;50.644;17.984;2023-08-20T02:44:39;100020.00;;;19.30
69590;BMP180;56792;50.644;17.984;2023-08-20T02:47:10;100025.40;;;19.30
69590;BMP180;56792;50.644;17.984;2023-08-20T02:49:41;100020.20;;;19.30
69590;BMP180;56792;50.644;17.984;2023-08-20T02:52:12;100018.00;;;19.20
69590;BMP180;56792;50.644;17.984;2023-08-20T02:54:43;100021.20;;;19.20
69590;BMP180;56792;50.644;17.984;2023-08-20T02:57:14;100019.60;;;19.20
69590;BMP180;56792;50.644;17.984;2023-08-20T02:59:45;100023.80;;;19.20
69590;BMP180;56792;50.644;17.984;2023-08-20T03:02:16;100020.00;;;19.20
69590;BMP180;56792;50.644;17.984;2023-08-20T03:04:47;100027.60;;;19.20
69590;BMP180;56792;50.644;17.984;2023-08-20T03:07:18;100031.00;;;19.20
69590;BMP180;56792;50.644;17.984;2023-08-20T03:09:49;100033.80;;;19.20
69590;BMP180;56792;50.644;17.984;2023-08-20T03:12:20;100037.20;;;19.20
69590;BMP180;56792;50.644;17.984;2023-08-20T03:14:52;100036.00;;;19.18
69590;BMP180;56792;50.644;17.984;2023-08-20T03:17:23;100046.80;;;19.18
69590;BMP180;56792;50.644;17.984;2023-08-20T03:20:01;100043.00;;;19.10
69590;BMP180;56792;50.644;17.984;2023-08-20T03:22:37;100045.80;;;19.10
69590;BMP180;56792;50.644;17.984;2023-08-20T03:25:09;100049.80;;;19.10
69590;BMP180;56792;50.644;17.984;2023-08-20T03:27:41;100046.60;;;19.10
69590;BMP180;56792;50.644;17.984;2023-08-20T03:30:13;100047.80;;;19.10
69590;BMP180;56792;50.644;17.984;2023-08-20T03:32:45;100048.40;;;19.10
69590;BMP180;56792;50.644;17.984;2023-08-20T03:35:16;100049.40;;;19.10
69590;BMP180;56792;50.644;17.984;2023-08-20T03:37:47;100048.00;;;19.10
69590;BMP180;56792;50.644;17.984;2023-08-20T03:40:19;100051.20;;;19.00
69590;BMP180;56792;50.644;17.984;2023-08-20T03:42:50;100051.80;;;19.00
69590;BMP180;56792;50.644;17.984;2023-08-20T03:45:21;100054.40;;;19.00
69590;BMP180;56792;50.644;17.984;2023-08-20T03:47:52;100059.00;;;19.00
69590;BMP180;56792;50.644;17.984;2023-08-20T03:50:23;100058.20;;;19.00
69590;BMP180;56792;50.644;17.984;2023-08-20T03:52:54;100057.40;;;19.00
69590;BMP180;56792;50.644;17.984;2023-08-20T03:55:25;100060.00;;;19.00
69590;BMP180;56792;50.644;17.984;2023-08-20T03:57:56;100059.00;;;19.00
69590;BMP180;56792;50.644;17.984;2023-08-20T04:00:27;100061.40;;;19.00
69590;BMP180;56792;50.644;17.984;2023-08-20T04:02:58;100060.40;;;19.00
69590;BMP180;56792;50.644;17.984;2023-08-20T04:05:29;100064.60;;;19.00
69590;BMP180;56792;50.644;17.984;2023-08-20T04:08:00;100070.60;;;19.00
69590;BMP180;56792;50.644;17.984;2023-08-20T04:10:31;100070.20;;;19.02
69590;BMP180;56792;50.644;17.984;2023-08-20T04:13:02;100069.20;;;19.02
69590;BMP180;56792;50.644;17.984;2023-08-20T04:15:34;100074.80;;;19.10
69590;BMP180;56792;50.644;17.984;2023-08-20T04:18:06;100078.60;;;19.10
69590;BMP180;56792;50.644;17.984;2023-08-20T04:20:37;100082.20;;;19.10
69590;BMP180;56792;50.644;17.984;2023-08-20T04:23:08;100082.00;;;19.10
69590;BMP180;56792;50.644;17.984;2023-08-20T04:25:39;100079.80;;;19.10
69590;BMP180;56792;50.644;17.984;2023-08-20T04:28:11;100079.00;;;19.10
69590;BMP180;56792;50.644;17.984;2023-08-20T04:30:42;100074.60;;;19.10
69590;BMP180;56792;50.644;17.984;2023-08-20T04:33:14;100079.20;;;19.10
69590;BMP180;56792;50.644;17.984;2023-08-20T04:35:48;100077.80;;;19.10
69590;BMP180;56792;50.644;17.984;2023-08-20T04:38:20;100081.00;;;19.20
69590;BMP180;56792;50.644;17.984;2023-08-20T04:40:51;100078.80;;;19.20
69590;BMP180;56792;50.644;17.984;2023-08-20T04:43:22;100080.40;;;19.20
69590;BMP180;56792;50.644;17.984;2023-08-20T04:45:53;100080.40;;;19.20
69590;BMP180;56792;50.644;17.984;2023-08-20T04:48:25;100084.20;;;19.20
69590;BMP180;56792;50.644;17.984;2023-08-20T04:50:56;100084.60;;;19.30
69590;BMP180;56792;50.644;17.984;2023-08-20T04:53:28;100081.60;;;19.30
69590;BMP180;56792;50.644;17.984;2023-08-20T04:56:01;100076.00;;;19.30
69590;BMP180;56792;50.644;17.984;2023-08-20T04:58:32;100082.00;;;19.40
69590;BMP180;56792;50.644;17.984;2023-08-20T05:01:04;100087.60;;;19.40
69590;BMP180;56792;50.644;17.984;2023-08-20T05:03:38;100084.40;;;19.42
69590;BMP180;56792;50.644;17.984;2023-08-20T05:06:09;100090.20;;;19.50
69590;BMP180;56792;50.644;17.984;2023-08-20T05:08:40;100094.60;;;19.50
69590;BMP180;56792;50.644;17.984;2023-08-20T05:11:11;100099.60;;;19.60
69590;BMP180;56792;50.644;17.984;2023-08-20T05:13:43;100105.40;;;19.60
69590;BMP180;56792;50.644;17.984;2023-08-20T05:16:15;100106.80;;;19.70
69590;BMP180;56792;50.644;17.984;2023-08-20T05:18:46;100099.00;;;19.74
69590;BMP180;56792;50.644;17.984;2023-08-20T05:21:17;100101.80;;;19.80
69590;BMP180;56792;50.644;17.984;2023-08-20T05:23:48;100105.20;;;19.86
69590;BMP180;56792;50.644;17.984;2023-08-20T05:26:19;100106.00;;;19.90
69590;BMP180;56792;50.644;17.984;2023-08-20T05:28:50;100109.80;;;20.00
69590;BMP180;56792;50.644;17.984;2023-08-20T05:31:22;100111.80;;;20.00
69590;BMP180;56792;50.644;17.984;2023-08-20T05:33:53;100105.60;;;20.10
69590;BMP180;56792;50.644;17.984;2023-08-20T05:36:25;100109.00;;;20.20
69590;BMP180;56792;50.644;17.984;2023-08-20T05:38:56;100110.40;;;20.20
69590;BMP180;56792;50.644;17.984;2023-08-20T05:41:28;100108.60;;;20.30
69590;BMP180;56792;50.644;17.984;2023-08-20T05:43:59;100107.60;;;20.40
69590;BMP180;56792;50.644;17.984;2023-08-20T05:46:30;100101.60;;;20.50
69590;BMP180;56792;50.644;17.984;2023-08-20T05:49:01;100101.60;;;20.50
69590;BMP180;56792;50.644;17.984;2023-08-20T05:51:35;100100.60;;;20.60
69590;BMP180;56792;50.644;17.984;2023-08-20T05:54:07;100105.00;;;20.70
69590;BMP180;56792;50.644;17.984;2023-08-20T05:56:39;100104.80;;;20.80
69590;BMP180;56792;50.644;17.984;2023-08-20T05:59:10;100105.20;;;20.86
69590;BMP180;56792;50.644;17.984;2023-08-20T06:01:41;100108.40;;;20.90
69590;BMP180;56792;50.644;17.984;2023-08-20T06:04:13;100107.00;;;21.00
69590;BMP180;56792;50.644;17.984;2023-08-20T06:06:44;100115.80;;;21.12
69590;BMP180;56792;50.644;17.984;2023-08-20T06:09:15;100116.80;;;21.30
69590;BMP180;56792;50.644;17.984;2023-08-20T06:11:47;100114.60;;;21.46
69590;BMP180;56792;50.644;17.984;2023-08-20T06:14:18;100114.60;;;21.60
69590;BMP180;56792;50.644;17.984;2023-08-20T06:16:49;100116.80;;;21.80
69590;BMP180;56792;50.644;17.984;2023-08-20T06:19:20;100118.20;;;21.90
69590;BMP180;56792;50.644;17.984;2023-08-20T06:21:51;100121.60;;;22.10
69590;BMP180;56792;50.644;17.984;2023-08-20T06:24:22;100118.80;;;22.38
69590;BMP180;56792;50.644;17.984;2023-08-20T06:26:53;100121.40;;;22.60
69590;BMP180;56792;50.644;17.984;2023-08-20T06:29:24;100121.40;;;22.80
69590;BMP180;56792;50.644;17.984;2023-08-20T06:31:55;100118.40;;;23.06
69590;BMP180;56792;50.644;17.984;2023-08-20T06:34:27;100121.20;;;23.30
69590;BMP180;56792;50.644;17.984;2023-08-20T06:36:58;100117.80;;;23.50
69590;BMP180;56792;50.644;17.984;2023-08-20T06:39:29;100123.00;;;23.70
69590;BMP180;56792;50.644;17.984;2023-08-20T06:42:00;100123.20;;;23.90
69590;BMP180;56792;50.644;17.984;2023-08-20T06:44:33;100122.80;;;24.02
69590;BMP180;56792;50.644;17.984;2023-08-20T06:47:06;100128.00;;;24.20
69590;BMP180;56792;50.644;17.984;2023-08-20T06:49:37;100127.60;;;24.34
69590;BMP180;56792;50.644;17.984;2023-08-20T06:52:08;100134.00;;;24.60
69590;BMP180;56792;50.644;17.984;2023-08-20T06:54:39;100135.80;;;24.70
69590;BMP180;56792;50.644;17.984;2023-08-20T06:57:10;100138.60;;;24.90
69590;BMP180;56792;50.644;17.984;2023-08-20T06:59:41;100142.00;;;25.10
69590;BMP180;56792;50.644;17.984;2023-08-20T07:02:13;100146.20;;;25.20
69590;BMP180;56792;50.644;17.984;2023-08-20T07:04:44;100145.80;;;25.48
69590;BMP180;56792;50.644;17.984;2023-08-20T07:07:16;100144.20;;;25.66
69590;BMP180;56792;50.644;17.984;2023-08-20T07:09:47;100143.20;;;25.88
69590;BMP180;56792;50.644;17.984;2023-08-20T07:12:18;100147.60;;;26.10
69590;BMP180;56792;50.644;17.984;2023-08-20T07:14:49;100153.00;;;26.32
69590;BMP180;56792;50.644;17.984;2023-08-20T07:17:20;100151.40;;;26.48
69590;BMP180;56792;50.644;17.984;2023-08-20T07:19:51;100155.00;;;26.60
69590;BMP180;56792;50.644;17.984;2023-08-20T07:22:22;100157.80;;;26.80
69590;BMP180;56792;50.644;17.984;2023-08-20T07:24:53;100160.20;;;27.00
69590;BMP180;56792;50.644;17.984;2023-08-20T07:27:24;100162.80;;;27.20
69590;BMP180;56792;50.644;17.984;2023-08-20T07:29:55;100163.80;;;27.40
69590;BMP180;56792;50.644;17.984;2023-08-20T07:32:26;100164.00;;;27.58
69590;BMP180;56792;50.644;17.984;2023-08-20T07:34:57;100165.00;;;27.70
69590;BMP180;56792;50.644;17.984;2023-08-20T07:37:28;100163.20;;;27.80
69590;BMP180;56792;50.644;17.984;2023-08-20T07:39:59;100159.80;;;28.04
69590;BMP180;56792;50.644;17.984;2023-08-20T07:42:30;100163.80;;;28.20
69590;BMP180;56792;50.644;17.984;2023-08-20T07:45:01;100160.40;;;28.28
69590;BMP180;56792;50.644;17.984;2023-08-20T07:47:33;100161.40;;;28.46
69590;BMP180;56792;50.644;17.984;2023-08-20T07:50:05;100163.00;;;28.70
69590;BMP180;56792;50.644;17.984;2023-08-20T07:52:36;100163.20;;;28.90
69590;BMP180;56792;50.644;17.984;2023-08-20T07:55:09;100169.00;;;29.04
69590;BMP180;56792;50.644;17.984;2023-08-20T07:57:40;100165.80;;;29.28
69590;BMP180;56792;50.644;17.984;2023-08-20T08:00:15;100166.00;;;29.40
69590;BMP180;56792;50.644;17.984;2023-08-20T08:02:46;100167.20;;;29.60
69590;BMP180;56792;50.644;17.984;2023-08-20T08:05:18;100167.00;;;29.80
69590;BMP180;56792;50.644;17.984;2023-08-20T08:07:49;100170.40;;;30.00
69590;BMP180;56792;50.644;17.984;2023-08-20T08:10:20;100169.80;;;30.00
69590;BMP180;56792;50.644;17.984;2023-08-20T08:12:51;100170.60;;;30.10
69590;BMP180;56792;50.644;17.984;2023-08-20T08:15:22;100171.80;;;30.18
69590;BMP180;56792;50.644;17.984;2023-08-20T08:17:53;100173.60;;;30.40
69590;BMP180;56792;50.644;17.984;2023-08-20T08:20:24;100178.20;;;30.50
69590;BMP180;56792;50.644;17.984;2023-08-20T08:22:55;100173.20;;;30.50
69590;BMP180;56792;50.644;17.984;2023-08-20T08:25:26;100177.80;;;30.60
69590;BMP180;56792;50.644;17.984;2023-08-20T08:27:57;100176.00;;;30.72
69590;BMP180;56792;50.644;17.984;2023-08-20T08:30:29;100177.60;;;30.80
69590;BMP180;56792;50.644;17.984;2023-08-20T08:33:01;100179.80;;;30.96
69590;BMP180;56792;50.644;17.984;2023-08-20T08:35:32;100182.00;;;31.22
69590;BMP180;56792;50.644;17.984;2023-08-20T08:38:03;100186.40;;;31.50
69590;BMP180;56792;50.644;17.984;2023-08-20T08:40:36;100181.60;;;31.70
69590;BMP180;56792;50.644;17.984;2023-08-20T08:43:08;100181.00;;;31.90
69590;BMP180;56792;50.644;17.984;2023-08-20T08:45:48;100181.40;;;32.10
69590;BMP180;56792;50.644;17.984;2023-08-20T08:48:20;100180.60;;;32.30
69590;BMP180;56792;50.644;17.984;2023-08-20T08:50:52;100179.20;;;32.50
69590;BMP180;56792;50.644;17.984;2023-08-20T08:53:25;100185.00;;;32.50
69590;BMP180;56792;50.644;17.984;2023-08-20T08:55:56;100187.00;;;32.70
69590;BMP180;56792;50.644;17.984;2023-08-20T08:58:28;100187.80;;;32.80
69590;BMP180;56792;50.644;17.984;2023-08-20T09:00:59;100191.60;;;33.00
69590;BMP180;56792;50.644;17.984;2023-08-20T09:03:30;100189.80;;;33.00
69590;BMP180;56792;50.644;17.984;2023-08-20T09:06:07;100194.40;;;33.10
69590;BMP180;56792;50.644;17.984;2023-08-20T09:08:39;100195.60;;;33.40
69590;BMP180;56792;50.644;17.984;2023-08-20T09:11:10;100196.60;;;33.70
69590;BMP180;56792;50.644;17.984;2023-08-20T09:13:43;100192.20;;;33.90
69590;BMP180;56792;50.644;17.984;2023-08-20T09:16:14;100199.20;;;34.10
69590;BMP180;56792;50.644;17.984;2023-08-20T09:18:47;100201.20;;;34.10
69590;BMP180;56792;50.644;17.984;2023-08-20T09:21:18;100201.60;;;34.20
69590;BMP180;56792;50.644;17.984;2023-08-20T09:23:49;100203.40;;;34.20
69590;BMP180;56792;50.644;17.984;2023-08-20T09:26:20;100202.00;;;34.40
69590;BMP180;56792;50.644;17.984;2023-08-20T09:28:53;100202.80;;;34.50
69590;BMP180;56792;50.644;17.984;2023-08-20T09:31:40;100200.20;;;34.70
69590;BMP180;56792;50.644;17.984;2023-08-20T09:34:15;100202.00;;;35.10
69590;BMP180;56792;50.644;17.984;2023-08-20T09:36:46;100209.80;;;35.50
69590;BMP180;56792;50.644;17.984;2023-08-20T09:39:17;100208.60;;;35.80
69590;BMP180;56792;50.644;17.984;2023-08-20T09:41:50;100209.00;;;36.10
69590;BMP180;56792;50.644;17.984;2023-08-20T09:44:23;100209.40;;;36.94
69590;BMP180;56792;50.644;17.984;2023-08-20T09:46:55;100207.60;;;38.06
69590;BMP180;56792;50.644;17.984;2023-08-20T09:49:32;100207.80;;;39.28
69590;BMP180;56792;50.644;17.984;2023-08-20T09:52:08;100212.00;;;40.64
69590;BMP180;56792;50.644;17.984;2023-08-20T09:54:56;100209.00;;;42.12
69590;BMP180;56792;50.644;17.984;2023-08-20T09:57:36;100213.00;;;43.50
69590;BMP180;56792;50.644;17.984;2023-08-20T10:00:11;100207.60;;;44.10
69590;BMP180;56792;50.644;17.984;2023-08-20T10:02:45;100207.20;;;45.08
69590;BMP180;56792;50.644;17.984;2023-08-20T10:05:17;100203.40;;;46.44
69590;BMP180;56792;50.644;17.984;2023-08-20T10:07:50;100206.00;;;47.22
69590;BMP180;56792;50.644;17.984;2023-08-20T10:10:21;100201.00;;;48.04
69590;BMP180;56792;50.644;17.984;2023-08-20T10:12:53;100204.00;;;49.02
69590;BMP180;56792;50.644;17.984;2023-08-20T10:15:26;100201.40;;;49.76
69590;BMP180;56792;50.644;17.984;2023-08-20T10:18:00;100203.00;;;50.10
69590;BMP180;56792;50.644;17.984;2023-08-20T10:20:33;100196.20;;;50.58
69590;BMP180;56792;50.644;17.984;2023-08-20T10:23:05;100197.40;;;51.00
69590;BMP180;56792;50.644;17.984;2023-08-20T10:25:43;100198.20;;;51.10
69590;BMP180;56792;50.644;17.984;2023-08-20T10:28:22;100204.00;;;51.12
69590;BMP180;56792;50.644;17.984;2023-08-20T10:31:09;100205.20;;;50.80
69590;BMP180;56792;50.644;17.984;2023-08-20T10:33:50;100195.60;;;50.60
69590;BMP180;56792;50.644;17.984;2023-08-20T10:36:23;100201.40;;;51.00
69590;BMP180;56792;50.644;17.984;2023-08-20T10:38:58;100203.60;;;51.30
69590;BMP180;56792;50.644;17.984;2023-08-20T10:41:34;100205.00;;;52.14
69590;BMP180;56792;50.644;17.984;2023-08-20T10:44:07;100200.60;;;52.40
69590;BMP180;56792;50.644;17.984;2023-08-20T10:46:52;100201.40;;;52.82
69590;BMP180;56792;50.644;17.984;2023-08-20T10:49:23;100207.60;;;53.20
69590;BMP180;56792;50.644;17.984;2023-08-20T10:51:54;100203.80;;;52.62
69590;BMP180;56792;50.644;17.984;2023-08-20T10:54:27;100204.60;;;52.46
69590;BMP180;56792;50.644;17.984;2023-08-20T10:57:00;100204.20;;;52.90
69590;BMP180;56792;50.644;17.984;2023-08-20T10:59:32;100206.20;;;53.30
69590;BMP180;56792;50.644;17.984;2023-08-20T11:02:08;100209.40;;;53.60
69590;BMP180;56792;50.644;17.984;2023-08-20T11:04:42;100211.60;;;53.70
69590;BMP180;56792;50.644;17.984;2023-08-20T11:07:18;100210.00;;;53.60
69590;BMP180;56792;50.644;17.984;2023-08-20T11:09:51;100205.80;;;54.06
69590;BMP180;56792;50.644;17.984;2023-08-20T11:12:24;100206.80;;;54.20
69590;BMP180;56792;50.644;17.984;2023-08-20T11:15:01;100207.20;;;53.80
69590;BMP180;56792;50.644;17.984;2023-08-20T11:17:33;100206.60;;;54.26
69590;BMP180;56792;50.644;17.984;2023-08-20T11:20:05;100204.80;;;54.20
69590;BMP180;56792;50.644;17.984;2023-08-20T11:22:37;100204.40;;;54.40
69590;BMP180;56792;50.644;17.984;2023-08-20T11:25:13;100202.00;;;54.50
69590;BMP180;56792;50.644;17.984;2023-08-20T11:27:46;100199.60;;;54.64
69590;BMP180;56792;50.644;17.984;2023-08-20T11:30:18;100197.80;;;54.80
69590;BMP180;56792;50.644;17.984;2023-08-20T11:32:49;100199.80;;;54.80
69590;BMP180;56792;50.644;17.984;2023-08-20T11:35:23;100202.80;;;54.64
69590;BMP180;56792;50.644;17.984;2023-08-20T11:37:54;100202.80;;;54.60
69590;BMP180;56792;50.644;17.984;2023-08-20T11:40:26;100203.80;;;55.24
69590;BMP180;56792;50.644;17.984;2023-08-20T11:42:57;100201.80;;;55.84
69590;BMP180;56792;50.644;17.984;2023-08-20T11:45:28;100201.00;;;56.18
69590;BMP180;56792;50.644;17.984;2023-08-20T11:48:00;100201.60;;;56.40
69590;BMP180;56792;50.644;17.984;2023-08-20T11:50:31;100200.20;;;56.30
69590;BMP180;56792;50.644;17.984;2023-08-20T11:53:03;100204.20;;;56.52
69590;BMP180;56792;50.644;17.984;2023-08-20T11:55:34;100202.20;;;56.90
69590;BMP180;56792;50.644;17.984;2023-08-20T11:58:05;100202.20;;;57.22
69590;BMP180;56792;50.644;17.984;2023-08-20T12:00:39;100192.20;;;57.60
69590;BMP180;56792;50.644;17.984;2023-08-20T12:03:11;100191.00;;;57.46
69590;BMP180;56792;50.644;17.984;2023-08-20T12:05:45;100191.80;;;57.28
69590;BMP180;56792;50.644;17.984;2023-08-20T12:08:19;100187.40;;;57.30
69590;BMP180;56792;50.644;17.984;2023-08-20T12:10:50;100188.00;;;57.40
69590;BMP180;56792;50.644;17.984;2023-08-20T12:13:22;100184.60;;;57.00
69590;BMP180;56792;50.644;17.984;2023-08-20T12:15:54;100184.60;;;57.20
69590;BMP180;56792;50.644;17.984;2023-08-20T12:18:25;100174.80;;;57.20
69590;BMP180;56792;50.644;17.984;2023-08-20T12:20:56;100170.40;;;56.84
69590;BMP180;56792;50.644;17.984;2023-08-20T12:23:27;100165.40;;;57.24
69590;BMP180;56792;50.644;17.984;2023-08-20T12:25:58;100174.40;;;57.66
69590;BMP180;56792;50.644;17.984;2023-08-20T12:28:29;100173.20;;;58.10
69590;BMP180;56792;50.644;17.984;2023-08-20T12:31:00;100173.80;;;57.24
69590;BMP180;56792;50.644;17.984;2023-08-20T12:33:32;100173.00;;;57.64
69590;BMP180;56792;50.644;17.984;2023-08-20T12:36:04;100175.00;;;57.30
69590;BMP180;56792;50.644;17.984;2023-08-20T12:38:35;100179.20;;;56.60
69590;BMP180;56792;50.644;17.984;2023-08-20T12:41:06;100173.00;;;56.36
69590;BMP180;56792;50.644;17.984;2023-08-20T12:43:37;100181.40;;;56.58
69590;BMP180;56792;50.644;17.984;2023-08-20T12:46:08;100174.80;;;56.80
69590;BMP180;56792;50.644;17.984;2023-08-20T12:48:40;100175.40;;;56.20
69590;BMP180;56792;50.644;17.984;2023-08-20T12:51:11;100180.60;;;55.58
69590;BMP180;56792;50.644;17.984;2023-08-20T12:53:43;100171.60;;;55.12
69590;BMP180;56792;50.644;17.984;2023-08-20T12:56:14;100175.20;;;54.52
69590;BMP180;56792;50.644;17.984;2023-08-20T12:58:46;100175.60;;;54.76
69590;BMP180;56792;50.644;17.984;2023-08-20T13:01:17;100172.00;;;55.18
69590;BMP180;56792;50.644;17.984;2023-08-20T13:03:50;100172.80;;;55.88
69590;BMP180;56792;50.644;17.984;2023-08-20T13:06:23;100185.60;;;56.08
69590;BMP180;56792;50.644;17.984;2023-08-20T13:08:55;100191.20;;;54.64
69590;BMP180;56792;50.644;17.984;2023-08-20T13:11:29;100190.20;;;52.46
69590;BMP180;56792;50.644;17.984;2023-08-20T13:14:03;100194.60;;;50.60
69590;BMP180;56792;50.644;17.984;2023-08-20T13:16:35;100188.60;;;49.02
69590;BMP180;56792;50.644;17.984;2023-08-20T13:19:09;100193.60;;;47.60
69590;BMP180;56792;50.644;17.984;2023-08-20T13:21:40;100190.00;;;46.18
69590;BMP180;56792;50.644;17.984;2023-08-20T13:24:11;100186.40;;;45.08
69590;BMP180;56792;50.644;17.984;2023-08-20T13:26:42;100190.60;;;44.76
69590;BMP180;56792;50.644;17.984;2023-08-20T13:29:14;100184.80;;;45.26
69590;BMP180;56792;50.644;17.984;2023-08-20T13:31:45;100185.40;;;45.40
69590;BMP180;56792;50.644;17.984;2023-08-20T13:34:16;100186.40;;;45.00
69590;BMP180;56792;50.644;17.984;2023-08-20T13:36:47;100186.20;;;44.60
69590;BMP180;56792;50.644;17.984;2023-08-20T13:39:18;100183.60;;;43.62
69590;BMP180;56792;50.644;17.984;2023-08-20T13:41:51;100186.80;;;43.10
69590;BMP180;56792;50.644;17.984;2023-08-20T13:44:23;100184.00;;;42.62
69590;BMP180;56792;50.644;17.984;2023-08-20T13:46:54;100182.60;;;42.14
69590;BMP180;56792;50.644;17.984;2023-08-20T13:49:25;100179.80;;;41.48
69590;BMP180;56792;50.644;17.984;2023-08-20T13:51:56;100179.60;;;40.88
69590;BMP180;56792;50.644;17.984;2023-08-20T13:54:27;100179.20;;;40.20
69590;BMP180;56792;50.644;17.984;2023-08-20T13:56:58;100181.40;;;39.54
69590;BMP180;56792;50.644;17.984;2023-08-20T13:59:29;100172.60;;;39.02
69590;BMP180;56792;50.644;17.984;2023-08-20T14:02:01;100172.00;;;38.90
69590;BMP180;56792;50.644;17.984;2023-08-20T14:04:32;100170.20;;;38.80
69590;BMP180;56792;50.644;17.984;2023-08-20T14:07:03;100162.60;;;38.54
69590;BMP180;56792;50.644;17.984;2023-08-20T14:09:34;100167.00;;;38.22
69590;BMP180;56792;50.644;17.984;2023-08-20T14:12:07;100166.40;;;37.98